createdAt,value
2018-09-12T00:00:36.498Z,17.00
2018-09-12T00:03:04.705Z,16.90
2018-09-12T00:05:32.930Z,16.90
2018-09-12T00:08:01.172Z,16.90
2018-09-12T00:10:29.390Z,17.00
2018-09-12T00:12:57.654Z,16.90
2018-09-12T00:15:25.870Z,16.90
2018-09-12T00:17:54.102Z,16.80
2018-09-12T00:20:22.319Z,16.70
2018-09-12T00:22:50.543Z,16.60
2018-09-12T00:25:18.756Z,16.50
2018-09-12T00:27:46.983Z,16.40
2018-09-12T00:30:15.198Z,16.50
2018-09-12T00:32:43.422Z,16.60
2018-09-12T00:35:11.639Z,16.60
2018-09-12T00:37:39.851Z,16.70
2018-09-12T00:40:08.048Z,16.70
2018-09-12T00:42:36.242Z,16.60
2018-09-12T00:45:04.433Z,16.40
2018-09-12T00:47:32.647Z,16.30
2018-09-12T00:50:00.839Z,16.20
2018-09-12T00:52:29.025Z,16.20
2018-09-12T00:54:57.250Z,16.20
2018-09-12T00:57:25.455Z,16.20
2018-09-12T00:59:53.660Z,16.20
2018-09-12T01:02:21.870Z,16.10
2018-09-12T01:04:50.064Z,16.00
2018-09-12T01:07:18.265Z,16.00
2018-09-12T01:09:46.479Z,15.90
2018-09-12T01:12:14.688Z,16.00
2018-09-12T01:14:42.895Z,16.00
2018-09-12T01:17:11.637Z,16.20
2018-09-12T01:19:39.837Z,16.00
2018-09-12T01:22:08.021Z,15.90
2018-09-12T01:24:36.249Z,15.90
2018-09-12T01:27:04.443Z,15.80
2018-09-12T01:29:32.664Z,15.70
2018-09-12T01:32:00.878Z,15.60
2018-09-12T01:34:29.088Z,15.60
2018-09-12T01:36:57.300Z,15.60
2018-09-12T01:39:25.497Z,15.60
2018-09-12T01:41:53.695Z,15.70
2018-09-12T01:44:21.907Z,15.60
2018-09-12T01:46:50.094Z,15.80
2018-09-12T01:49:19.852Z,15.80
2018-09-12T01:51:49.542Z,15.70
2018-09-12T01:54:18.663Z,15.70
2018-09-12T01:56:46.890Z,15.60
2018-09-12T01:59:15.303Z,15.60
2018-09-12T02:01:44.502Z,15.50
2018-09-12T02:04:12.701Z,15.40
2018-09-12T02:06:40.928Z,15.40
2018-09-12T02:09:11.069Z,15.30
2018-09-12T02:11:39.311Z,15.30
2018-09-12T02:14:07.504Z,15.30
2018-09-12T02:16:35.754Z,15.20
2018-09-12T02:19:04.067Z,15.20
2018-09-12T02:21:32.280Z,15.30
2018-09-12T02:24:00.483Z,15.40
2018-09-12T02:26:28.721Z,15.40
2018-09-12T02:28:56.942Z,15.30
2018-09-12T02:31:25.156Z,15.30
2018-09-12T02:33:53.341Z,15.20
2018-09-12T02:36:27.551Z,15.20
2018-09-12T02:38:56.730Z,15.10
2018-09-12T02:41:24.981Z,15.20
2018-09-12T02:43:53.799Z,15.20
2018-09-12T02:46:22.398Z,15.20
2018-09-12T02:48:51.070Z,15.20
2018-09-12T02:51:19.303Z,15.10
2018-09-12T02:53:47.515Z,15.10
2018-09-12T02:56:15.756Z,15.00
2018-09-12T02:58:43.963Z,15.00
2018-09-12T03:01:12.215Z,15.00
2018-09-12T03:03:40.445Z,15.10
2018-09-12T03:06:08.694Z,15.10
2018-09-12T03:08:37.006Z,15.00
2018-09-12T03:11:05.450Z,15.00
2018-09-12T03:13:33.686Z,14.90
2018-09-12T03:16:01.929Z,14.90
2018-09-12T03:18:30.162Z,14.90
2018-09-12T03:20:58.482Z,14.90
2018-09-12T03:23:26.644Z,15.00
2018-09-12T03:25:54.858Z,15.00
2018-09-12T03:28:23.095Z,15.20
2018-09-12T03:30:51.399Z,15.20
2018-09-12T03:33:19.746Z,15.20
2018-09-12T03:35:47.979Z,15.10
2018-09-12T03:38:16.249Z,15.20
2018-09-12T03:40:44.493Z,15.20
2018-09-12T03:43:12.803Z,15.00
2018-09-12T03:45:41.050Z,15.10
2018-09-12T03:48:09.338Z,15.10
2018-09-12T03:50:37.504Z,15.10
2018-09-12T03:53:05.739Z,15.10
2018-09-12T03:55:33.939Z,15.10
2018-09-12T03:58:02.177Z,14.90
2018-09-12T04:00:30.385Z,15.10
2018-09-12T04:02:58.606Z,14.90
2018-09-12T04:05:26.831Z,14.90
2018-09-12T04:07:55.041Z,14.80
2018-09-12T04:10:23.286Z,14.70
2018-09-12T04:12:51.535Z,14.60
2018-09-12T04:15:19.759Z,14.70
2018-09-12T04:17:47.998Z,14.70
2018-09-12T04:20:16.218Z,14.60
2018-09-12T04:22:44.431Z,14.60
2018-09-12T04:25:12.646Z,14.80
2018-09-12T04:27:40.874Z,14.70
2018-09-12T04:30:09.106Z,14.70
2018-09-12T04:32:37.310Z,14.60
2018-09-12T04:35:05.542Z,14.60
2018-09-12T04:37:33.762Z,14.70
2018-09-12T04:40:01.992Z,14.70
2018-09-12T04:45:04.883Z,14.60
2018-09-12T04:47:33.102Z,14.60
2018-09-12T04:50:01.329Z,14.50
2018-09-12T04:52:29.532Z,14.60
2018-09-12T04:54:57.753Z,14.50
2018-09-12T04:57:25.953Z,14.40
2018-09-12T04:59:54.193Z,14.30
2018-09-12T05:02:22.486Z,14.40
2018-09-12T05:04:50.731Z,14.30
2018-09-12T05:07:18.943Z,14.20
2018-09-12T05:09:47.183Z,14.10
2018-09-12T05:12:15.403Z,14.10
2018-09-12T05:14:43.634Z,14.10
2018-09-12T05:17:11.859Z,14.10
2018-09-12T05:19:40.091Z,14.00
2018-09-12T05:22:08.309Z,14.10
2018-09-12T05:24:36.791Z,14.10
2018-09-12T05:27:05.020Z,14.10
2018-09-12T05:29:33.255Z,14.30
2018-09-12T05:32:01.460Z,14.20
2018-09-12T05:34:29.689Z,14.10
2018-09-12T05:36:57.956Z,14.10
2018-09-12T05:39:26.202Z,14.20
2018-09-12T05:41:54.390Z,14.20
2018-09-12T05:44:22.615Z,14.30
2018-09-12T05:46:50.805Z,14.40
2018-09-12T05:49:19.007Z,14.40
2018-09-12T05:51:47.214Z,14.50
2018-09-12T05:54:15.409Z,14.50
2018-09-12T05:56:43.651Z,14.50
2018-09-12T05:59:11.847Z,14.60
2018-09-12T06:01:40.047Z,14.90
2018-09-12T06:04:08.238Z,14.80
2018-09-12T06:06:36.474Z,14.70
2018-09-12T06:09:07.286Z,14.70
2018-09-12T06:11:35.494Z,14.70
2018-09-12T06:14:03.789Z,14.80
2018-09-12T06:16:31.980Z,14.80
2018-09-12T06:19:00.168Z,14.80
2018-09-12T06:21:28.395Z,14.90
2018-09-12T06:23:56.586Z,15.00
2018-09-12T06:26:24.809Z,15.00
2018-09-12T06:28:53.103Z,15.20
2018-09-12T06:31:21.324Z,15.30
2018-09-12T06:33:49.538Z,15.40
2018-09-12T06:36:17.741Z,15.50
2018-09-12T06:38:45.991Z,15.50
2018-09-12T06:41:14.175Z,15.60
2018-09-12T06:43:42.362Z,15.60
2018-09-12T06:46:10.566Z,15.80
2018-09-12T06:48:38.750Z,15.80
2018-09-12T06:51:06.952Z,15.80
2018-09-12T06:53:35.152Z,16.00
2018-09-12T06:56:03.346Z,16.10
2018-09-12T06:58:31.537Z,16.10
2018-09-12T07:00:59.812Z,16.30
2018-09-12T07:03:27.964Z,16.40
2018-09-12T07:05:56.146Z,16.50
2018-09-12T07:08:24.350Z,16.60
2018-09-12T07:10:52.530Z,16.70
2018-09-12T07:13:20.774Z,16.80
2018-09-12T07:15:48.990Z,16.90
2018-09-12T07:18:17.192Z,17.00
2018-09-12T07:20:45.389Z,17.00
2018-09-12T07:23:13.605Z,17.10
2018-09-12T07:25:41.792Z,17.20
2018-09-12T07:28:10.016Z,17.30
2018-09-12T07:30:38.277Z,17.50
2018-09-12T07:33:06.422Z,17.60
2018-09-12T07:35:34.613Z,17.70
2018-09-12T07:38:02.922Z,17.80
2018-09-12T07:40:31.114Z,18.10
2018-09-12T07:42:59.394Z,18.60
2018-09-12T07:45:27.955Z,19.40
2018-09-12T07:47:56.163Z,20.20
2018-09-12T07:50:24.354Z,20.90
2018-09-12T07:52:52.576Z,21.60
2018-09-12T07:55:20.800Z,22.20
2018-09-12T07:57:49.012Z,22.90
2018-09-12T08:00:17.283Z,23.30
2018-09-12T08:02:45.403Z,23.50
2018-09-12T08:05:13.728Z,23.80
2018-09-12T08:07:41.822Z,24.00
2018-09-12T08:10:10.026Z,24.30
2018-09-12T08:12:38.247Z,24.40
2018-09-12T08:15:06.662Z,24.60
2018-09-12T08:17:34.940Z,24.70
2018-09-12T08:20:03.150Z,25.10
2018-09-12T08:22:31.363Z,25.40
2018-09-12T08:24:59.553Z,25.40
2018-09-12T08:27:27.754Z,25.60
2018-09-12T08:29:55.964Z,25.60
2018-09-12T08:32:24.146Z,25.60
2018-09-12T08:34:52.363Z,25.70
2018-09-12T08:37:20.571Z,25.90
2018-09-12T08:39:48.797Z,25.90
2018-09-12T08:42:17.066Z,26.10
2018-09-12T08:44:45.227Z,26.30
2018-09-12T08:47:13.439Z,26.30
2018-09-12T08:49:41.655Z,26.40
2018-09-12T08:52:09.851Z,26.50
2018-09-12T08:54:38.064Z,26.50
2018-09-12T08:57:06.292Z,26.50
2018-09-12T08:59:34.494Z,26.60
2018-09-12T09:02:02.707Z,26.90
2018-09-12T09:04:37.692Z,27.30
2018-09-12T09:07:05.902Z,27.30
2018-09-12T09:09:34.115Z,27.60
2018-09-12T09:12:02.315Z,27.70
2018-09-12T09:14:30.532Z,27.90
2018-09-12T09:16:58.745Z,28.10
2018-09-12T09:19:27.002Z,28.20
2018-09-12T09:21:55.187Z,28.40
2018-09-12T09:24:23.396Z,28.50
2018-09-12T09:26:51.582Z,28.60
2018-09-12T09:29:19.788Z,28.60
2018-09-12T09:31:47.986Z,29.10
2018-09-12T09:34:16.206Z,29.40
2018-09-12T09:36:44.405Z,29.50
2018-09-12T09:39:12.991Z,29.80
2018-09-12T09:41:41.821Z,29.90
2018-09-12T09:44:10.068Z,30.00
2018-09-12T09:46:38.296Z,30.30
2018-09-12T09:49:06.519Z,30.40
2018-09-12T09:51:34.734Z,30.50
2018-09-12T09:54:02.955Z,30.70
2018-09-12T09:56:31.170Z,30.80
2018-09-12T09:59:00.231Z,31.00
2018-09-12T10:01:33.764Z,31.10
2018-09-12T10:04:07.575Z,31.40
2018-09-12T10:06:41.271Z,31.60
2018-09-12T10:09:14.888Z,31.80
2018-09-12T10:11:44.175Z,32.00
2018-09-12T10:14:12.683Z,32.00
2018-09-12T10:16:40.974Z,32.20
2018-09-12T10:19:12.057Z,32.50
2018-09-12T10:21:40.279Z,32.70
2018-09-12T10:24:09.306Z,32.80
2018-09-12T10:26:37.580Z,32.90
2018-09-12T10:29:05.976Z,32.90
2018-09-12T10:31:34.289Z,33.00
2018-09-12T10:34:02.539Z,33.00
2018-09-12T10:36:31.434Z,33.00
2018-09-12T10:38:59.729Z,33.20
2018-09-12T10:41:28.911Z,33.30
2018-09-12T10:43:57.170Z,33.40
2018-09-12T10:46:25.394Z,33.50
2018-09-12T10:48:53.615Z,33.60
2018-09-12T10:51:21.866Z,33.70
2018-09-12T10:53:50.081Z,33.80
2018-09-12T10:56:18.308Z,33.90
2018-09-12T10:58:46.506Z,33.90
2018-09-12T11:01:14.741Z,34.00
2018-09-12T11:03:43.383Z,34.10
2018-09-12T11:06:11.621Z,34.30
2018-09-12T11:08:39.846Z,34.40
2018-09-12T11:11:08.124Z,34.20
2018-09-12T11:13:36.335Z,34.40
2018-09-12T11:16:04.575Z,34.40
2018-09-12T11:18:32.791Z,34.40
2018-09-12T11:21:01.022Z,34.50
2018-09-12T11:23:29.247Z,34.50
2018-09-12T11:25:57.467Z,34.50
2018-09-12T11:28:25.694Z,34.80
2018-09-12T11:30:53.919Z,34.90
2018-09-12T11:33:22.127Z,34.80
2018-09-12T11:35:50.352Z,34.80
2018-09-12T11:38:18.818Z,34.80
2018-09-12T11:40:47.047Z,34.60
2018-09-12T11:43:15.256Z,34.40
2018-09-12T11:45:43.524Z,34.20
2018-09-12T11:48:11.783Z,34.20
2018-09-12T11:50:39.997Z,34.00
2018-09-12T11:53:08.238Z,33.80
2018-09-12T11:55:36.538Z,33.50
2018-09-12T11:58:04.694Z,33.50
2018-09-12T12:00:32.902Z,33.50
2018-09-12T12:03:01.130Z,33.20
2018-09-12T12:05:29.346Z,33.30
2018-09-12T12:07:57.577Z,33.00
2018-09-12T12:10:25.788Z,33.00
2018-09-12T12:12:54.028Z,32.90
2018-09-12T12:15:22.749Z,32.70
2018-09-12T12:17:50.943Z,32.60
2018-09-12T12:20:19.177Z,32.50
2018-09-12T12:22:47.416Z,32.30
2018-09-12T12:25:15.649Z,32.20
2018-09-12T12:27:44.010Z,32.20
2018-09-12T12:30:12.244Z,32.10
2018-09-12T12:32:40.467Z,32.00
2018-09-12T12:35:08.707Z,31.90
2018-09-12T12:37:36.941Z,31.60
2018-09-12T12:40:05.203Z,31.60
2018-09-12T12:42:33.438Z,31.50
2018-09-12T12:45:01.659Z,31.40
2018-09-12T12:47:29.897Z,31.30
2018-09-12T12:49:58.106Z,31.00
2018-09-12T12:52:26.338Z,31.00
2018-09-12T12:54:54.549Z,31.10
2018-09-12T12:57:22.861Z,31.00
2018-09-12T12:59:51.082Z,30.80
2018-09-12T13:02:19.377Z,30.70
2018-09-12T13:04:47.598Z,30.60
2018-09-12T13:07:15.843Z,30.60
2018-09-12T13:09:44.071Z,30.50
2018-09-12T13:12:12.303Z,30.50
2018-09-12T13:14:40.525Z,30.50
2018-09-12T13:17:08.737Z,30.40
2018-09-12T13:19:36.967Z,30.50
2018-09-12T13:22:05.183Z,30.40
2018-09-12T13:24:33.411Z,30.30
2018-09-12T13:27:01.639Z,30.20
2018-09-12T13:29:29.864Z,30.10
2018-09-12T13:31:58.088Z,30.20
2018-09-12T13:34:26.345Z,30.10
2018-09-12T13:36:54.579Z,30.10
2018-09-12T13:39:22.807Z,30.00
2018-09-12T13:41:51.035Z,30.00
2018-09-12T13:44:19.260Z,29.90
2018-09-12T13:46:47.463Z,30.00
2018-09-12T13:49:15.699Z,30.20
2018-09-12T13:51:43.950Z,30.20
2018-09-12T13:54:12.178Z,30.20
2018-09-12T13:56:40.462Z,30.30
2018-09-12T13:59:08.622Z,30.20
2018-09-12T14:01:36.841Z,30.00
2018-09-12T14:04:05.069Z,30.00
2018-09-12T14:06:33.307Z,29.90
2018-09-12T14:09:01.535Z,29.80
2018-09-12T14:11:29.766Z,29.70
2018-09-12T14:13:58.000Z,29.70
2018-09-12T14:16:26.220Z,29.60
2018-09-12T14:18:54.474Z,29.60
2018-09-12T14:21:22.962Z,29.70
2018-09-12T14:23:51.191Z,29.90
2018-09-12T14:26:19.399Z,29.90
2018-09-12T14:28:47.626Z,29.90
2018-09-12T14:31:15.853Z,29.80
2018-09-12T14:33:44.076Z,29.70
2018-09-12T14:36:12.302Z,29.70
2018-09-12T14:38:47.319Z,29.70
2018-09-12T14:41:15.530Z,29.60
2018-09-12T14:43:43.993Z,29.70
2018-09-12T14:46:12.472Z,29.60
2018-09-12T14:48:40.788Z,29.60
2018-09-12T14:51:09.214Z,29.60
2018-09-12T14:53:37.824Z,29.50
2018-09-12T14:56:06.130Z,29.50
2018-09-12T14:58:34.386Z,29.50
2018-09-12T15:01:02.607Z,29.50
2018-09-12T15:03:30.828Z,29.60
2018-09-12T15:05:59.058Z,29.60
2018-09-12T15:08:27.287Z,29.70
2018-09-12T15:10:55.527Z,29.70
2018-09-12T15:13:23.741Z,29.70
2018-09-12T15:15:51.975Z,29.80
2018-09-12T15:18:20.190Z,29.70
2018-09-12T15:20:48.430Z,29.80
2018-09-12T15:23:16.662Z,29.80
2018-09-12T15:25:44.890Z,29.80
2018-09-12T15:28:13.108Z,29.70
2018-09-12T15:30:41.350Z,29.70
2018-09-12T15:33:09.572Z,29.60
2018-09-12T15:35:37.800Z,29.60
2018-09-12T15:38:06.024Z,29.50
2018-09-12T15:40:34.258Z,29.50
2018-09-12T15:43:02.465Z,29.40
2018-09-12T15:45:30.698Z,29.50
2018-09-12T15:47:58.918Z,29.40
2018-09-12T15:50:27.169Z,29.40
2018-09-12T15:52:55.475Z,29.40
2018-09-12T15:55:23.800Z,29.30
2018-09-12T15:57:52.034Z,29.30
2018-09-12T16:00:20.234Z,29.20
2018-09-12T16:02:48.461Z,29.10
2018-09-12T16:05:16.716Z,29.00
2018-09-12T16:07:44.921Z,29.00
2018-09-12T16:10:13.150Z,29.00
2018-09-12T16:12:41.367Z,29.00
2018-09-12T16:15:09.606Z,29.00
2018-09-12T16:17:37.823Z,28.90
2018-09-12T16:20:06.041Z,28.80
2018-09-12T16:22:34.276Z,28.80
2018-09-12T16:25:02.479Z,28.80
2018-09-12T16:27:30.697Z,28.80
2018-09-12T16:29:58.916Z,28.70
2018-09-12T16:32:27.202Z,28.50
2018-09-12T16:34:55.375Z,28.50
2018-09-12T16:37:23.588Z,28.30
2018-09-12T16:39:51.786Z,28.20
2018-09-12T16:42:19.997Z,28.00
2018-09-12T16:44:48.185Z,27.80
2018-09-12T16:47:16.398Z,27.50
2018-09-12T16:49:44.599Z,27.30
2018-09-12T16:52:12.833Z,27.10
2018-09-12T16:54:41.026Z,26.90
2018-09-12T16:57:09.346Z,26.90
2018-09-12T16:59:37.548Z,26.90
2018-09-12T17:02:05.741Z,27.20
2018-09-12T17:04:33.948Z,27.40
2018-09-12T17:07:02.146Z,27.40
2018-09-12T17:09:30.343Z,27.40
2018-09-12T17:11:58.549Z,27.40
2018-09-12T17:14:26.749Z,27.30
2018-09-12T17:16:54.955Z,27.30
2018-09-12T17:19:23.158Z,27.10
2018-09-12T17:21:51.358Z,26.90
2018-09-12T17:24:19.549Z,26.80
2018-09-12T17:26:47.775Z,26.70
2018-09-12T17:29:15.982Z,26.60
2018-09-12T17:31:44.200Z,26.60
2018-09-12T17:34:12.422Z,26.60
2018-09-12T17:36:40.722Z,26.50
2018-09-12T17:39:09.658Z,26.40
2018-09-12T17:41:37.882Z,26.30
2018-09-12T17:44:06.226Z,26.20
2018-09-12T17:46:34.463Z,26.10
2018-09-12T17:49:02.695Z,26.00
2018-09-12T17:51:30.966Z,25.90
2018-09-12T17:53:59.223Z,25.80
2018-09-12T17:56:27.478Z,25.80
2018-09-12T17:58:55.708Z,25.70
2018-09-12T18:01:23.912Z,25.40
2018-09-12T18:03:52.150Z,25.30
2018-09-12T18:06:20.380Z,25.20
2018-09-12T18:08:48.586Z,25.10
2018-09-12T18:11:16.895Z,25.10
2018-09-12T18:13:45.038Z,24.90
2018-09-12T18:16:13.261Z,24.80
2018-09-12T18:18:41.571Z,24.80
2018-09-12T18:21:09.870Z,24.80
2018-09-12T18:23:38.116Z,24.70
2018-09-12T18:26:06.349Z,24.60
2018-09-12T18:28:34.622Z,24.40
2018-09-12T18:31:02.838Z,24.10
2018-09-12T18:33:31.078Z,23.80
2018-09-12T18:35:59.310Z,23.80
2018-09-12T18:38:27.563Z,23.60
2018-09-12T18:40:55.781Z,23.50
2018-09-12T18:43:24.106Z,23.50
2018-09-12T18:45:52.330Z,23.50
2018-09-12T18:48:20.551Z,23.30
2018-09-12T18:50:48.773Z,23.10
2018-09-12T18:53:17.007Z,23.10
2018-09-12T18:55:45.218Z,23.00
2018-09-12T18:58:13.446Z,23.10
2018-09-12T19:00:42.083Z,22.90
2018-09-12T19:03:10.294Z,22.70
2018-09-12T19:05:38.531Z,22.50
2018-09-12T19:08:06.773Z,22.30
2018-09-12T19:10:35.000Z,22.30
2018-09-12T19:13:03.311Z,22.50
2018-09-12T19:15:31.486Z,22.40
2018-09-12T19:17:59.914Z,22.30
2018-09-12T19:20:28.159Z,22.30
2018-09-12T19:22:56.370Z,22.30
2018-09-12T19:25:24.673Z,22.20
2018-09-12T19:27:53.410Z,22.00
2018-09-12T19:30:21.899Z,21.80
2018-09-12T19:32:50.918Z,21.80
2018-09-12T19:35:19.141Z,21.80
2018-09-12T19:37:47.376Z,21.60
2018-09-12T19:40:15.647Z,21.60
2018-09-12T19:42:43.866Z,21.60
2018-09-12T19:45:12.115Z,21.60
2018-09-12T19:47:40.355Z,21.50
2018-09-12T19:50:08.644Z,21.40
2018-09-12T19:52:36.881Z,21.40
2018-09-12T19:55:05.147Z,21.30
2018-09-12T19:57:33.382Z,21.30
2018-09-12T20:00:01.690Z,21.30
2018-09-12T20:02:31.654Z,21.30
2018-09-12T20:05:00.359Z,21.30
2018-09-12T20:07:29.766Z,21.30
2018-09-12T20:09:57.991Z,21.30
2018-09-12T20:12:26.198Z,21.20
2018-09-12T20:15:01.211Z,21.20
2018-09-12T20:17:29.447Z,21.10
2018-09-12T20:19:57.674Z,21.10
2018-09-12T20:22:26.104Z,21.10
2018-09-12T20:24:54.366Z,21.00
2018-09-12T20:27:22.586Z,21.00
2018-09-12T20:29:50.910Z,21.00
2018-09-12T20:32:19.156Z,21.00
2018-09-12T20:34:47.367Z,21.00
2018-09-12T20:37:15.609Z,21.00
2018-09-12T20:39:44.194Z,21.10
2018-09-12T20:42:12.426Z,21.00
2018-09-12T20:44:40.867Z,21.00
2018-09-12T20:47:09.105Z,21.10
2018-09-12T20:49:37.316Z,21.10
2018-09-12T20:52:11.958Z,21.10
2018-09-12T20:54:40.175Z,21.10
2018-09-12T20:57:08.401Z,21.00
2018-09-12T20:59:36.617Z,21.00
2018-09-12T21:02:04.848Z,21.00
2018-09-12T21:04:33.058Z,20.90
2018-09-12T21:07:01.321Z,20.80
2018-09-12T21:09:29.538Z,20.70
2018-09-12T21:11:57.773Z,20.80
2018-09-12T21:14:25.973Z,20.80
2018-09-12T21:16:54.202Z,20.70
2018-09-12T21:19:22.414Z,20.80
2018-09-12T21:21:57.368Z,20.80
2018-09-12T21:24:25.591Z,20.80
2018-09-12T21:29:28.451Z,20.80
2018-09-12T21:31:56.662Z,20.80
2018-09-12T21:34:24.876Z,20.80
2018-09-12T21:36:53.093Z,20.60
2018-09-12T21:39:21.318Z,20.70
2018-09-12T21:41:49.558Z,20.60
2018-09-12T21:44:17.765Z,20.60
2018-09-12T21:46:45.990Z,20.60
2018-09-12T21:49:14.210Z,20.40
2018-09-12T21:51:42.423Z,20.60
2018-09-12T21:54:10.643Z,20.50
2018-09-12T21:56:38.849Z,20.50
2018-09-12T21:59:07.091Z,20.40
2018-09-12T22:01:35.303Z,20.30
2018-09-12T22:04:03.527Z,20.20
2018-09-12T22:06:31.743Z,20.20
2018-09-12T22:08:59.965Z,20.10
2018-09-12T22:11:28.169Z,20.10
2018-09-12T22:13:56.389Z,20.10
2018-09-12T22:16:24.603Z,20.20
2018-09-12T22:18:52.919Z,20.20
2018-09-12T22:21:21.113Z,20.20
2018-09-12T22:23:49.350Z,20.10
2018-09-12T22:26:17.566Z,20.10
2018-09-12T22:28:45.803Z,20.10
2018-09-12T22:31:14.028Z,20.00
2018-09-12T22:33:42.254Z,20.00
2018-09-12T22:36:10.467Z,20.00
2018-09-12T22:38:38.710Z,19.90
2018-09-12T22:41:06.972Z,19.80
2018-09-12T22:43:35.203Z,19.70
2018-09-12T22:46:03.411Z,19.60
2018-09-12T22:48:31.809Z,19.60
2018-09-12T22:51:00.226Z,19.60
2018-09-12T22:53:28.457Z,19.40
2018-09-12T22:55:56.933Z,19.30
2018-09-12T22:58:25.142Z,19.30
2018-09-12T23:00:53.340Z,19.20
2018-09-12T23:03:21.550Z,19.30
2018-09-12T23:05:49.748Z,19.30
2018-09-12T23:08:17.958Z,19.20
2018-09-12T23:10:46.158Z,19.30
2018-09-12T23:13:14.382Z,19.30
2018-09-12T23:15:42.613Z,19.20
2018-09-12T23:18:10.815Z,19.10
2018-09-12T23:20:39.039Z,19.10
2018-09-12T23:23:07.240Z,19.10
2018-09-12T23:25:35.455Z,19.10
2018-09-12T23:28:03.659Z,19.00
2018-09-12T23:30:31.871Z,19.00
2018-09-12T23:33:00.076Z,19.00
2018-09-12T23:35:28.282Z,19.00
2018-09-12T23:37:56.502Z,19.00
2018-09-12T23:40:24.697Z,18.90
2018-09-12T23:42:52.900Z,18.90
2018-09-12T23:45:21.093Z,18.80
2018-09-12T23:47:49.298Z,19.00
2018-09-12T23:50:17.493Z,18.90
2018-09-12T23:52:45.699Z,18.80
2018-09-12T23:55:13.894Z,18.80
2018-09-12T23:57:42.091Z,18.80
